createdAt,value
2022-12-06T03:26:10.114Z,6.60
2022-12-06T03:27:15.827Z,6.90
2022-12-06T03:28:20.959Z,4.20
2022-12-06T03:29:25.679Z,3.20
2022-12-06T03:30:31.335Z,5.80
2022-12-06T03:33:58.976Z,4.10
2022-12-06T03:35:05.078Z,4.20
2022-12-06T03:36:11.046Z,5.80
2022-12-06T03:37:16.561Z,3.60
2022-12-06T03:38:25.064Z,5.00
2022-12-06T03:39:47.531Z,5.00
2022-12-06T03:40:52.265Z,5.20
2022-12-06T03:41:57.267Z,5.50
2022-12-06T03:42:59.886Z,5.10
2022-12-06T03:44:01.976Z,3.40
2022-12-06T03:45:05.448Z,5.89
2022-12-06T03:46:18.371Z,4.20
2022-12-06T03:47:26.850Z,1.90
2022-12-06T03:48:38.510Z,6.30
2022-12-06T03:49:52.814Z,6.80
2022-12-06T03:50:58.972Z,5.70
2022-12-06T03:52:02.074Z,4.20
2022-12-06T03:53:04.505Z,5.50
2022-12-06T03:54:08.205Z,6.40
2022-12-06T03:55:10.356Z,6.00
2022-12-06T03:56:12.244Z,6.70
2022-12-06T03:57:14.076Z,7.22
2022-12-06T03:58:15.803Z,5.56
2022-12-06T03:59:17.507Z,5.00
2022-12-06T04:00:20.156Z,3.33
2022-12-06T04:01:22.209Z,1.10
2022-12-06T04:02:25.189Z,6.40
2022-12-06T04:03:27.139Z,4.00
2022-12-06T04:04:28.951Z,5.33
2022-12-06T04:05:31.453Z,5.89
2022-12-06T04:06:33.586Z,7.82
2022-12-06T04:07:35.778Z,7.33
2022-12-06T04:08:38.106Z,4.50
2022-12-06T04:09:39.942Z,6.60
2022-12-06T04:10:41.746Z,7.11
2022-12-06T04:11:43.698Z,4.78
2022-12-06T04:12:45.632Z,6.56
2022-12-06T04:13:47.652Z,4.67
2022-12-06T04:14:49.698Z,6.56
2022-12-06T04:15:57.770Z,7.44
2022-12-06T04:16:59.964Z,6.60
2022-12-06T04:18:03.881Z,7.33
2022-12-06T04:19:05.895Z,8.20
2022-12-06T04:20:08.350Z,6.50
2022-12-06T04:21:10.289Z,7.10
2022-12-06T04:22:11.994Z,5.89
2022-12-06T04:23:13.816Z,6.67
2022-12-06T04:24:15.552Z,1.33
2022-12-06T04:25:17.269Z,6.67
2022-12-06T04:26:21.773Z,6.33
2022-12-06T04:27:23.520Z,2.30
2022-12-06T04:28:25.636Z,6.89
2022-12-06T04:29:27.300Z,6.44
2022-12-06T04:30:30.283Z,7.44
2022-12-06T04:31:32.470Z,7.18
2022-12-06T04:32:34.509Z,6.80
2022-12-06T04:33:36.498Z,7.22
2022-12-06T04:34:38.117Z,5.78
2022-12-06T04:35:39.737Z,8.44
2022-12-06T04:36:41.947Z,5.89
2022-12-06T04:37:43.813Z,7.00
2022-12-06T04:38:46.077Z,6.56
2022-12-06T04:39:47.778Z,0.20
2022-12-06T04:40:49.694Z,6.89
2022-12-06T04:41:52.200Z,6.00
2022-12-06T04:42:53.893Z,6.60
2022-12-06T04:43:55.952Z,6.11
2022-12-06T04:44:57.902Z,7.44
2022-12-06T04:45:59.535Z,6.89
2022-12-06T04:47:01.678Z,8.33
2022-12-06T04:48:04.647Z,7.18
2022-12-06T04:49:07.032Z,7.00
2022-12-06T04:50:09.762Z,8.18
2022-12-06T04:51:11.963Z,7.40
2022-12-06T04:52:14.552Z,6.00
2022-12-06T04:53:16.435Z,7.00
2022-12-06T04:54:18.176Z,8.00
2022-12-06T04:55:19.897Z,8.22
2022-12-06T04:56:22.069Z,9.10
2022-12-06T04:57:23.873Z,7.22
2022-12-06T04:58:25.526Z,9.89
2022-12-06T04:59:27.943Z,8.33
2022-12-06T05:00:29.949Z,7.40
2022-12-06T05:01:31.744Z,6.11
2022-12-06T05:02:33.682Z,6.78
2022-12-06T05:03:40.873Z,6.78
2022-12-06T05:04:41.119Z,7.40
2022-12-06T05:05:44.030Z,6.18
2022-12-06T05:06:46.436Z,4.70
2022-12-06T05:07:48.247Z,6.40
2022-12-06T05:08:50.382Z,7.56
2022-12-06T05:09:52.592Z,2.80
2022-12-06T05:10:54.632Z,7.60
2022-12-06T05:11:56.700Z,10.33
2022-12-06T05:13:00.699Z,5.60
2022-12-06T05:14:03.768Z,7.50
2022-12-06T05:15:06.808Z,3.20
2022-12-06T05:16:10.029Z,6.80
2022-12-06T05:17:13.199Z,6.55
2022-12-06T05:18:15.202Z,4.91
2022-12-06T05:19:17.793Z,6.90
2022-12-06T05:20:20.297Z,5.40
2022-12-06T05:21:24.293Z,5.00
2022-12-06T05:22:26.316Z,6.60
2022-12-06T05:23:28.687Z,7.78
2022-12-06T05:24:31.864Z,7.00
2022-12-06T05:25:34.010Z,8.50
2022-12-06T05:26:35.999Z,6.00
2022-12-06T05:27:37.917Z,7.56
2022-12-06T05:28:40.534Z,8.00
2022-12-06T05:29:42.450Z,8.30
2022-12-06T05:30:45.003Z,9.00
2022-12-06T05:31:46.978Z,9.00
2022-12-06T05:32:53.887Z,8.00
2022-12-06T05:33:54.124Z,7.60
2022-12-06T05:34:56.736Z,4.00
2022-12-06T05:36:00.697Z,5.00
2022-12-06T05:37:02.835Z,8.40
2022-12-06T05:38:05.231Z,10.22
2022-12-06T05:39:07.073Z,6.80
2022-12-06T05:40:10.736Z,7.90
2022-12-06T05:41:12.619Z,7.18
2022-12-06T05:42:22.100Z,6.89
2022-12-06T05:43:19.027Z,8.00
2022-12-06T05:44:21.129Z,7.30
2022-12-06T05:45:23.049Z,7.33
2022-12-06T05:46:25.319Z,6.80
2022-12-06T05:47:27.282Z,6.10
2022-12-06T05:48:29.447Z,8.11
2022-12-06T05:49:31.342Z,9.20
2022-12-06T05:50:34.306Z,10.22
2022-12-06T05:51:36.430Z,9.00
2022-12-06T05:52:38.331Z,7.60
2022-12-06T05:53:40.180Z,10.11
2022-12-06T05:54:42.147Z,5.33
2022-12-06T05:55:44.315Z,9.50
2022-12-06T05:56:48.689Z,8.20
2022-12-06T05:57:51.353Z,9.80
2022-12-06T05:58:53.489Z,9.50
2022-12-06T05:59:56.295Z,8.00
2022-12-06T06:00:58.525Z,15.45
2022-12-06T06:02:00.630Z,12.00
2022-12-06T06:03:03.772Z,5.20
2022-12-06T06:04:05.983Z,6.40
2022-12-06T06:05:08.801Z,12.40
2022-12-06T06:06:10.910Z,11.70
2022-12-06T06:07:12.957Z,8.78
2022-12-06T06:08:18.511Z,8.22
2022-12-06T06:09:20.483Z,8.40
2022-12-06T06:10:24.011Z,8.33
2022-12-06T10:41:19.461Z,12.50
2022-12-06T10:42:30.838Z,7.60
2022-12-06T10:43:45.602Z,10.80
2022-12-06T10:44:52.555Z,10.60
2022-12-06T10:46:05.761Z,14.60
2022-12-06T10:47:12.074Z,19.00
2022-12-06T10:48:30.261Z,12.70
2022-12-06T10:49:44.910Z,13.80
2022-12-06T10:50:50.973Z,15.00
2022-12-06T10:52:03.194Z,13.30
2022-12-06T10:53:14.926Z,5.00
2022-12-06T10:54:24.183Z,7.40
2022-12-06T10:55:30.578Z,13.70
2022-12-06T10:56:36.603Z,9.90
2022-12-06T10:57:57.647Z,13.10
2022-12-06T11:00:25.649Z,15.60
2022-12-06T11:01:34.827Z,13.70
2022-12-06T11:02:44.879Z,15.70
2022-12-06T11:04:05.664Z,15.30
2022-12-06T11:05:20.625Z,14.90
2022-12-06T11:06:31.908Z,13.00
2022-12-06T11:07:37.805Z,13.00
2022-12-06T11:08:54.529Z,15.40
2022-12-06T11:09:58.167Z,13.50
2022-12-06T11:11:04.103Z,14.90
2022-12-06T11:12:33.389Z,14.50
2022-12-06T11:13:42.619Z,13.70
2022-12-06T11:14:48.194Z,14.70
2022-12-06T11:15:54.494Z,13.80
2022-12-06T11:17:15.594Z,17.30
2022-12-06T11:18:17.915Z,15.60
2022-12-06T11:19:41.387Z,14.40
2022-12-06T11:21:01.933Z,13.00
2022-12-06T11:22:13.730Z,10.60
2022-12-06T11:23:46.780Z,14.90
2022-12-06T11:24:58.275Z,11.50
2022-12-06T11:26:19.574Z,14.00
2022-12-06T11:27:25.740Z,12.30
2022-12-06T11:28:40.217Z,15.30
2022-12-06T11:29:44.630Z,14.30
2022-12-06T11:30:49.631Z,14.30
2022-12-06T11:31:58.369Z,14.60
2022-12-06T11:33:02.826Z,14.45
2022-12-06T11:34:07.970Z,13.50
2022-12-06T11:35:18.185Z,15.40
2022-12-06T11:36:22.259Z,14.00
2022-12-06T11:37:28.272Z,15.50
2022-12-06T11:38:32.819Z,13.00
2022-12-06T11:39:35.389Z,14.50
2022-12-06T11:40:43.763Z,15.80
2022-12-06T11:41:49.349Z,12.50
2022-12-06T11:42:52.474Z,14.90
2022-12-06T11:43:57.420Z,14.50
2022-12-06T11:45:12.194Z,7.80
2022-12-06T11:46:15.095Z,11.80
2022-12-06T11:47:21.526Z,11.36
2022-12-06T11:48:26.921Z,13.60
2022-12-06T11:49:38.565Z,15.60
2022-12-06T11:50:42.564Z,9.30
2022-12-06T11:51:44.727Z,14.20
2022-12-06T11:53:05.588Z,13.67
2022-12-06T11:54:20.501Z,15.90
2022-12-06T11:56:39.378Z,13.20
2022-12-06T11:57:50.857Z,11.30
2022-12-06T11:59:04.909Z,15.50
2022-12-06T12:00:22.667Z,15.40
2022-12-06T12:01:43.632Z,14.50
2022-12-06T12:02:47.727Z,15.40
2022-12-06T12:03:49.956Z,14.40
2022-12-06T12:04:53.039Z,15.20
2022-12-06T12:06:22.002Z,13.90
2022-12-06T12:07:26.054Z,13.20
2022-12-06T12:08:32.429Z,17.80
2022-12-06T12:09:47.205Z,16.00
2022-12-06T12:11:00.983Z,15.80
2022-12-06T12:12:06.893Z,12.70
2022-12-06T12:13:18.535Z,13.90
2022-12-06T12:14:30.370Z,16.00
2022-12-06T12:15:33.892Z,14.60
2022-12-06T12:16:38.933Z,13.20
2022-12-06T12:17:45.075Z,14.50
2022-12-06T12:19:03.443Z,13.90
2022-12-06T12:20:09.457Z,13.10
2022-12-06T12:21:12.122Z,15.90
2022-12-06T12:22:18.729Z,15.30
2022-12-06T12:23:24.331Z,12.90
2022-12-06T12:25:17.448Z,16.40
2022-12-06T12:26:06.102Z,17.20
2022-12-06T12:27:31.503Z,7.10
2022-12-06T12:28:34.431Z,13.80
2022-12-06T12:29:36.488Z,14.09
2022-12-06T12:30:39.946Z,15.80
2022-12-06T12:31:54.367Z,16.20
2022-12-06T12:33:09.114Z,15.00
2022-12-06T12:34:20.824Z,17.10
2022-12-06T12:35:25.131Z,12.00
2022-12-06T12:36:29.580Z,16.80
2022-12-06T12:37:31.940Z,17.90
2022-12-06T12:38:55.651Z,17.20
2022-12-06T12:39:58.050Z,17.10
2022-12-06T12:41:06.616Z,20.10
2022-12-06T12:42:29.538Z,19.40
2022-12-06T12:43:33.176Z,17.60
2022-12-06T12:44:40.012Z,15.50
2022-12-06T12:46:12.074Z,13.10
2022-12-06T12:47:18.247Z,15.50
2022-12-06T12:48:26.673Z,18.90
2022-12-06T12:49:37.594Z,21.00
2022-12-06T12:50:43.213Z,19.80
2022-12-06T12:51:48.066Z,18.90
2022-12-06T12:52:51.650Z,16.70
2022-12-06T12:54:03.028Z,16.80
2022-12-06T12:55:20.299Z,15.40
2022-12-06T12:56:22.528Z,18.30
2022-12-06T12:57:24.546Z,18.20
2022-12-06T12:58:27.272Z,17.11
2022-12-06T12:59:39.246Z,19.10
2022-12-06T13:00:44.999Z,18.70
2022-12-06T13:01:59.863Z,17.10
2022-12-06T13:03:14.185Z,20.50
2022-12-06T13:04:33.104Z,19.20
2022-12-06T13:05:44.893Z,18.90
2022-12-06T13:07:01.037Z,17.80
2022-12-06T13:08:21.713Z,18.50
2022-12-06T13:09:30.215Z,23.70
2022-12-06T13:10:36.567Z,17.90
2022-12-06T13:11:42.268Z,24.50
2022-12-06T13:12:55.861Z,22.00
2022-12-06T13:14:00.135Z,21.60
2022-12-06T13:15:22.333Z,19.50
2022-12-06T13:16:30.877Z,16.20
2022-12-06T13:17:36.684Z,20.80
2022-12-06T13:18:42.353Z,17.00
2022-12-06T13:19:53.045Z,14.70
2022-12-06T13:20:54.430Z,14.90
2022-12-06T13:21:57.649Z,11.40
2022-12-06T13:23:09.448Z,13.60
2022-12-06T13:24:26.924Z,15.50
2022-12-06T13:25:30.611Z,13.90
2022-12-06T13:26:38.250Z,10.60
2022-12-06T13:27:44.722Z,12.10
2022-12-06T13:28:50.497Z,10.10
2022-12-06T13:29:59.538Z,12.70
2022-12-06T13:31:05.989Z,8.30
2022-12-06T13:32:14.770Z,11.70
2022-12-06T13:33:21.454Z,10.80
2022-12-06T13:34:38.021Z,10.80
2022-12-06T13:35:46.524Z,13.30
2022-12-06T13:36:48.742Z,9.80
2022-12-06T13:38:22.659Z,7.44
2022-12-06T13:39:28.121Z,10.80
2022-12-06T13:40:36.642Z,8.00
2022-12-06T13:41:42.779Z,12.60
2022-12-06T13:42:45.831Z,8.50
2022-12-06T13:43:49.193Z,15.90
2022-12-06T13:44:54.696Z,16.80
2022-12-06T13:46:15.390Z,13.50
2022-12-06T13:47:30.847Z,13.50
2022-12-06T13:48:53.879Z,13.50
2022-12-06T13:49:59.489Z,10.80
2022-12-06T13:51:04.919Z,11.60
2022-12-06T13:52:06.953Z,12.90
2022-12-06T13:53:09.049Z,9.89
2022-12-06T13:54:20.565Z,12.60
2022-12-06T13:55:29.573Z,12.40
2022-12-06T13:56:36.157Z,10.30
2022-12-06T13:57:39.207Z,12.60
2022-12-06T13:58:45.985Z,11.30
2022-12-06T13:59:49.448Z,10.60
2022-12-06T14:00:53.918Z,11.20
2022-12-06T14:01:56.991Z,10.90
2022-12-06T14:03:02.613Z,11.80
2022-12-06T14:07:00.326Z,10.00
2022-12-06T14:08:02.316Z,12.00
2022-12-06T14:09:08.206Z,12.89
2022-12-06T14:10:13.305Z,13.50
2022-12-06T14:11:22.366Z,12.40
2022-12-06T14:12:27.796Z,11.20
2022-12-06T14:13:29.724Z,10.80
2022-12-06T14:14:31.903Z,10.00
2022-12-06T14:15:33.806Z,11.70
2022-12-06T14:16:55.394Z,12.10
2022-12-06T14:18:05.569Z,11.60
2022-12-06T14:19:23.832Z,12.50
2022-12-06T14:20:28.912Z,12.50
2022-12-06T14:21:35.737Z,13.10
2022-12-06T14:22:37.999Z,13.90
2022-12-06T14:23:46.141Z,15.10
2022-12-06T14:25:00.652Z,11.10
2022-12-06T14:26:21.572Z,10.80
2022-12-06T14:27:25.037Z,7.30
2022-12-06T14:28:30.838Z,10.80
2022-12-06T14:29:33.210Z,11.90
2022-12-06T14:30:35.559Z,13.30
2022-12-06T14:31:38.819Z,12.00
2022-12-06T14:32:44.987Z,11.60
2022-12-06T14:33:47.468Z,10.50
2022-12-06T14:34:49.229Z,10.40
2022-12-06T14:35:54.672Z,10.33
2022-12-06T14:36:59.253Z,11.50
2022-12-06T14:38:23.300Z,9.80
2022-12-06T14:39:31.625Z,10.60
2022-12-06T18:18:36.884Z,16.80
2022-12-06T18:19:38.853Z,16.80
2022-12-06T18:20:42.064Z,18.78
2022-12-06T18:21:45.136Z,19.10
2022-12-06T18:22:47.138Z,17.30
2022-12-06T18:24:19.917Z,18.67
2022-12-06T18:24:53.524Z,20.80
2022-12-06T18:25:55.159Z,17.56
2022-12-06T18:26:58.331Z,15.80
2022-12-06T18:28:01.183Z,14.80
2022-12-06T18:29:05.030Z,20.00
2022-12-06T18:30:09.351Z,15.70
2022-12-06T18:31:13.308Z,22.00
2022-12-06T18:32:16.696Z,20.60
2022-12-06T18:33:23.358Z,21.90
2022-12-06T18:34:25.079Z,21.90
2022-12-06T18:35:29.457Z,20.70
2022-12-06T18:36:32.574Z,21.70
2022-12-06T18:37:35.986Z,18.40
2022-12-06T18:38:41.645Z,20.40
2022-12-06T18:39:45.262Z,18.10
2022-12-06T18:40:47.483Z,18.70
2022-12-06T18:41:51.064Z,17.67
2022-12-06T18:42:54.526Z,19.60
2022-12-06T18:44:03.249Z,18.80
2022-12-06T18:45:06.840Z,14.20
2022-12-06T18:46:14.582Z,18.60
2022-12-06T18:47:17.361Z,16.70
2022-12-06T18:48:19.162Z,13.80
2022-12-06T18:49:21.472Z,16.56
2022-12-06T18:50:23.273Z,15.40
2022-12-06T18:51:29.406Z,18.89
2022-12-06T18:52:31.465Z,18.60
2022-12-06T18:53:35.494Z,19.00
2022-12-06T18:54:38.356Z,18.30
2022-12-06T18:55:41.831Z,17.50
2022-12-06T18:56:47.348Z,19.20
2022-12-06T18:57:50.951Z,17.80
2022-12-06T18:58:53.592Z,19.60
2022-12-06T18:59:58.688Z,17.20
2022-12-06T19:01:09.630Z,17.30
2022-12-06T19:02:12.820Z,15.80
2022-12-06T19:03:14.933Z,16.60
2022-12-06T19:04:16.877Z,18.00
2022-12-06T19:05:27.796Z,19.00
2022-12-06T19:06:25.675Z,17.10
2022-12-06T19:07:28.500Z,16.70
2022-12-06T19:08:31.069Z,17.73
2022-12-06T19:09:33.100Z,14.70
2022-12-06T19:10:35.396Z,16.50
2022-12-06T19:11:40.776Z,15.50
2022-12-06T19:12:42.832Z,16.70
2022-12-06T19:13:53.600Z,16.70
2022-12-06T19:14:55.582Z,16.80
2022-12-06T19:16:03.575Z,5.11
2022-12-06T19:17:08.988Z,15.80
2022-12-06T19:18:11.474Z,14.30
2022-12-06T19:19:17.254Z,15.30
2022-12-06T19:20:19.703Z,12.30
2022-12-06T19:21:22.902Z,17.10
2022-12-06T19:22:26.810Z,14.20
2022-12-06T19:23:29.941Z,14.90
2022-12-06T19:24:32.494Z,13.60
2022-12-06T19:25:34.862Z,14.90
2022-12-06T19:26:36.863Z,13.50
2022-12-06T19:27:39.486Z,16.11
2022-12-06T19:28:41.845Z,15.70
2022-12-06T19:29:43.660Z,15.10
2022-12-06T19:30:49.741Z,15.44
2022-12-06T19:31:52.205Z,16.60
2022-12-06T19:32:54.001Z,14.20
2022-12-06T19:33:56.315Z,0.56
2022-12-06T19:34:59.754Z,14.70
2022-12-06T19:36:06.343Z,14.50
2022-12-06T19:37:08.701Z,13.80
2022-12-06T19:38:11.603Z,14.33
2022-12-06T19:39:13.527Z,13.80
2022-12-06T19:40:16.566Z,15.40
2022-12-06T19:41:19.105Z,10.73
2022-12-06T19:42:22.390Z,13.30
2022-12-06T19:43:27.577Z,15.60
2022-12-06T19:44:30.151Z,12.90
2022-12-06T19:45:32.946Z,17.50
2022-12-06T19:46:36.680Z,13.45
2022-12-06T19:47:39.778Z,14.40
2022-12-06T19:48:43.101Z,14.00
2022-12-06T19:49:46.001Z,11.40
2022-12-06T19:50:48.570Z,11.36
2022-12-06T19:51:50.900Z,12.80
2022-12-06T19:52:54.904Z,13.50
2022-12-06T19:53:58.292Z,13.90
2022-12-06T19:55:01.806Z,14.30
2022-12-06T19:56:07.403Z,14.10
2022-12-06T19:57:09.353Z,14.20
2022-12-06T19:58:11.186Z,13.00
2022-12-06T19:59:14.792Z,13.44
2022-12-06T20:00:22.475Z,14.00
2022-12-06T20:01:24.334Z,13.90
2022-12-06T20:02:26.550Z,11.90
2022-12-06T20:03:28.944Z,13.70
2022-12-06T20:04:34.621Z,11.90
2022-12-06T20:05:36.983Z,12.10
2022-12-06T20:06:38.806Z,13.50
2022-12-06T20:07:41.113Z,11.67
2022-12-06T20:08:44.019Z,14.00
2022-12-06T20:09:45.902Z,12.70
2022-12-06T20:10:56.360Z,15.80
2022-12-06T20:11:59.970Z,12.20
2022-12-06T20:13:02.387Z,3.40
2022-12-06T20:14:07.846Z,13.20
2022-12-06T20:15:10.743Z,14.80
2022-12-06T20:16:13.086Z,12.64
2022-12-06T20:17:22.860Z,12.50
2022-12-06T20:18:25.140Z,10.60
2022-12-06T20:19:27.026Z,15.40
2022-12-06T20:20:29.459Z,13.56
2022-12-06T20:21:31.174Z,12.90
2022-12-06T20:22:34.124Z,13.00
2022-12-06T20:23:36.769Z,13.64
2022-12-06T20:24:39.368Z,12.60
2022-12-06T20:25:41.069Z,14.70
2022-12-06T20:26:45.097Z,13.56
2022-12-06T20:27:48.056Z,13.90
2022-12-06T20:28:49.777Z,13.90
2022-12-06T20:29:52.616Z,11.33
2022-12-06T20:30:56.800Z,13.09
2022-12-06T20:31:59.823Z,15.30
2022-12-06T20:33:01.709Z,13.45
2022-12-06T20:34:10.147Z,13.67
2022-12-06T20:35:09.782Z,14.80
2022-12-06T20:36:14.217Z,13.67
2022-12-06T20:37:17.128Z,12.10
2022-12-06T20:38:18.829Z,12.90
2022-12-06T20:39:26.115Z,3.67
2022-12-06T20:40:31.601Z,11.90
2022-12-06T20:41:33.171Z,13.60
2022-12-06T20:42:36.089Z,10.80
2022-12-06T20:43:41.902Z,6.09
2022-12-06T20:44:44.422Z,9.00
2022-12-06T20:45:46.984Z,12.30
2022-12-06T20:46:49.819Z,11.10
2022-12-06T20:47:52.897Z,11.91
2022-12-06T20:48:56.698Z,13.40
2022-12-06T20:49:59.080Z,12.70
2022-12-06T20:51:05.378Z,12.70
2022-12-06T20:52:07.404Z,10.20
2022-12-06T20:53:09.549Z,7.89
2022-12-06T20:54:18.863Z,11.50
2022-12-06T20:55:21.001Z,12.60
2022-12-06T21:01:40.920Z,9.70
2022-12-06T21:02:44.095Z,9.09
2022-12-06T21:03:52.651Z,11.70
2022-12-06T21:04:54.955Z,7.30
2022-12-06T21:06:03.709Z,11.70
2022-12-06T21:07:05.961Z,9.70
2022-12-06T21:08:08.043Z,11.00
2022-12-06T21:09:10.731Z,11.50
2022-12-06T21:10:13.811Z,13.00
2022-12-06T21:11:24.962Z,11.45
2022-12-06T21:12:21.385Z,12.10
2022-12-06T21:13:24.224Z,10.78
2022-12-06T21:14:26.584Z,12.36
2022-12-06T21:15:28.909Z,10.00
2022-12-06T21:16:33.282Z,15.20
2022-12-06T21:17:35.395Z,13.10
2022-12-06T21:18:38.257Z,13.70
2022-12-06T21:19:41.464Z,14.18
2022-12-06T21:20:43.353Z,14.10
2022-12-06T21:21:50.739Z,14.78
2022-12-06T21:22:52.527Z,14.20
2022-12-06T21:23:54.564Z,13.78
2022-12-06T21:24:57.392Z,14.20
2022-12-06T21:26:04.091Z,13.09
2022-12-06T21:27:06.038Z,13.20
2022-12-06T21:28:08.742Z,14.30
2022-12-06T21:29:18.570Z,13.50
2022-12-06T21:30:20.610Z,13.70
2022-12-06T21:31:34.288Z,14.20
2022-12-06T21:32:36.454Z,14.40
2022-12-06T21:33:38.876Z,13.33
2022-12-06T21:34:46.262Z,15.40
2022-12-06T21:35:45.772Z,14.80
2022-12-06T21:36:49.062Z,7.18
2022-12-06T21:37:51.045Z,6.20
2022-12-06T21:38:53.496Z,14.89
2022-12-06T21:39:56.240Z,15.50
2022-12-06T21:42:17.646Z,14.70
2022-12-06T21:43:21.733Z,13.44
2022-12-06T21:44:23.818Z,14.40
2022-12-06T21:45:25.633Z,13.80
2022-12-06T21:46:27.712Z,11.89
2022-12-06T21:47:30.699Z,13.89
2022-12-06T21:48:33.131Z,12.50
2022-12-06T21:49:35.961Z,12.80
2022-12-06T21:50:38.292Z,14.40
2022-12-06T21:51:39.934Z,7.22
2022-12-06T21:52:41.581Z,12.67
2022-12-06T21:53:43.608Z,10.78
2022-12-06T21:54:45.536Z,11.67
2022-12-06T21:55:48.378Z,11.67
2022-12-06T21:56:51.548Z,12.10
2022-12-06T21:57:54.670Z,12.80
2022-12-06T21:58:56.783Z,13.50
2022-12-06T21:59:59.228Z,14.11
2022-12-06T22:01:10.965Z,12.10
2022-12-06T22:02:13.093Z,11.40
2022-12-06T22:03:20.929Z,11.30
2022-12-06T22:04:18.878Z,10.60
2022-12-06T22:05:22.114Z,9.78
2022-12-06T22:06:26.015Z,12.60
2022-12-06T22:07:29.202Z,9.70
2022-12-06T22:08:31.569Z,10.00
2022-12-06T22:09:34.704Z,9.70
2022-12-06T22:10:39.402Z,10.60
2022-12-06T22:11:41.561Z,12.40
2022-12-06T22:12:46.602Z,12.00
2022-12-06T22:13:48.512Z,11.10
2022-12-06T22:14:51.265Z,8.67
2022-12-06T22:15:53.120Z,12.70
2022-12-06T22:16:55.277Z,10.40
2022-12-06T22:17:57.096Z,9.33
2022-12-06T22:18:58.876Z,10.89
